Time,TemperatureF,DewpointF,PressureIn,WindDirection,WindDirectionDegrees,WindSpeedMPH,WindSpeedGustMPH,Humidity,HourlyPrecipIn,Conditions,Clouds,dailyrainin,SoftwareType,DateUTC
2013-01-10 00:03:00,39.0,-99.9,-100.00,NW,318,9.0,19.0,-999,-99.99,,,-99.99,,2013-01-10 05:03:00,
2013-01-10 00:12:00,39.0,-99.9,-100.00,NW,318,9.0,19.0,-999,-99.99,,,-99.99,,2013-01-10 05:12:00,
2013-01-10 00:23:00,36.0,-99.9,-100.00,NNE,14,4.0,5.0,-999,-99.99,,,-99.99,,2013-01-10 05:23:00,
2013-01-10 00:33:00,36.0,-99.9,-100.00,NNE,14,4.0,5.0,-999,-99.99,,,-99.99,,2013-01-10 05:33:00,
2013-01-10 00:43:00,36.0,-99.9,-100.00,NNE,14,4.0,10.0,-999,-99.99,,,-99.99,,2013-01-10 05:43:00,
2013-01-10 00:53:00,36.0,-99.9,-100.00,NNE,14,4.0,10.0,-999,-99.99,,,-99.99,,2013-01-10 05:53:00,
2013-01-10 01:03:00,36.0,-99.9,-100.00,NNE,14,4.0,10.0,-999,-99.99,,,-99.99,,2013-01-10 06:03:00,
2013-01-10 01:12:00,36.0,-99.9,-100.00,NNE,14,4.0,10.0,-999,-99.99,,,-99.99,,2013-01-10 06:12:00,
2013-01-10 01:22:00,36.0,-99.9,-100.00,SSE,168,2.0,2.0,-999,-99.99,,,-99.99,,2013-01-10 06:22:00,
2013-01-10 01:32:00,36.0,-99.9,-100.00,SSE,168,2.0,2.0,-999,-99.99,,,-99.99,,2013-01-10 06:32:00,
2013-01-10 01:42:00,36.0,-99.9,-100.00,South,175,2.0,5.0,-999,-99.99,,,-99.99,,2013-01-10 06:42:00,
2013-01-10 01:53:00,36.0,-99.9,-100.00,South,175,2.0,5.0,-999,-99.99,,,-99.99,,2013-01-10 06:53:00,
2013-01-10 02:02:00,36.0,-99.9,-100.00,South,175,2.0,5.0,-999,-99.99,,,-99.99,,2013-01-10 07:02:00,
2013-01-10 02:12:00,36.0,-99.9,-100.00,South,175,2.0,5.0,-999,-99.99,,,-99.99,,2013-01-10 07:12:00,
2013-01-10 02:22:00,34.0,-99.9,-100.00,ESE,103,2.0,2.0,-999,-99.99,,,-99.99,,2013-01-10 07:22:00,
2013-01-10 02:32:00,34.0,-99.9,-100.00,ESE,103,3.0,4.0,-999,-99.99,,,-99.99,,2013-01-10 07:32:00,
2013-01-10 02:42:00,34.0,-99.9,-100.00,ESE,103,3.0,4.0,-999,-99.99,,,-99.99,,2013-01-10 07:42:00,
2013-01-10 02:52:00,34.0,-99.9,-100.00,ESE,103,3.0,4.0,-999,-99.99,,,-99.99,,2013-01-10 07:52:00,
2013-01-10 03:02:00,34.0,-99.9,-100.00,ESE,103,3.0,4.0,-999,-99.99,,,-99.99,,2013-01-10 08:02:00,
2013-01-10 03:12:00,34.0,-99.9,-100.00,ESE,103,3.0,4.0,-999,-99.99,,,-99.99,,2013-01-10 08:12:00,
2013-01-10 03:22:00,33.0,-99.9,-100.00,SE,124,6.0,8.0,-999,-99.99,,,-99.99,,2013-01-10 08:22:00,
2013-01-10 03:33:00,33.0,-99.9,-100.00,SE,124,6.0,8.0,-999,-99.99,,,-99.99,,2013-01-10 08:33:00,
2013-01-10 03:42:00,33.0,-99.9,-100.00,SE,129,6.0,8.0,-999,-99.99,,,-99.99,,2013-01-10 08:42:00,
2013-01-10 03:53:00,33.0,-99.9,-100.00,SE,129,6.0,8.0,-999,-99.99,,,-99.99,,2013-01-10 08:53:00,
2013-01-10 04:02:00,33.0,-99.9,-100.00,SE,129,6.0,8.0,-999,-99.99,,,-99.99,,2013-01-10 09:02:00,
2013-01-10 04:12:00,33.0,-99.9,-100.00,SE,129,6.0,8.0,-999,-99.99,,,-99.99,,2013-01-10 09:12:00,
2013-01-10 04:22:00,33.0,-99.9,-100.00,SE,126,6.0,7.0,-999,-99.99,,,-99.99,,2013-01-10 09:22:00,
2013-01-10 04:32:00,33.0,-99.9,-100.00,SE,126,6.0,7.0,-999,-99.99,,,-99.99,,2013-01-10 09:32:00,
2013-01-10 04:43:00,33.0,-99.9,-100.00,SE,126,6.0,8.0,-999,-99.99,,,-99.99,,2013-01-10 09:43:00,
2013-01-10 04:53:00,33.0,-99.9,-100.00,SE,126,6.0,8.0,-999,-99.99,,,-99.99,,2013-01-10 09:53:00,
2013-01-10 05:03:00,33.0,-99.9,-100.00,SE,126,6.0,8.0,-999,-99.99,,,-99.99,,2013-01-10 10:03:00,
2013-01-10 05:12:00,33.0,-99.9,-100.00,SE,126,6.0,8.0,-999,-99.99,,,-99.99,,2013-01-10 10:12:00,
2013-01-10 05:22:00,30.0,-99.9,-100.00,East,91,4.0,5.0,-999,-99.99,,,-99.99,,2013-01-10 10:22:00,
2013-01-10 05:33:00,30.0,-99.9,-100.00,East,93,4.0,8.0,-999,-99.99,,,-99.99,,2013-01-10 10:33:00,
2013-01-10 05:43:00,30.0,-99.9,-100.00,East,93,4.0,8.0,-999,-99.99,,,-99.99,,2013-01-10 10:43:00,
2013-01-10 05:53:00,30.0,-99.9,-100.00,East,93,4.0,8.0,-999,-99.99,,,-99.99,,2013-01-10 10:53:00,
2013-01-10 06:03:00,30.0,-99.9,-100.00,East,93,4.0,8.0,-999,-99.99,,,-99.99,,2013-01-10 11:03:00,
2013-01-10 06:12:00,30.0,-99.9,-100.00,East,93,4.0,8.0,-999,-99.99,,,-99.99,,2013-01-10 11:12:00,
2013-01-10 06:23:00,31.0,-99.9,-100.00,ESE,117,5.0,6.0,-999,-99.99,,,-99.99,,2013-01-10 11:23:00,
2013-01-10 06:33:00,31.0,-99.9,-100.00,ESE,115,5.0,7.0,-999,-99.99,,,-99.99,,2013-01-10 11:33:00,
2013-01-10 06:43:00,31.0,-99.9,-100.00,ESE,115,5.0,7.0,-999,-99.99,,,-99.99,,2013-01-10 11:43:00,
2013-01-10 06:53:00,31.0,-99.9,-100.00,ESE,115,5.0,7.0,-999,-99.99,,,-99.99,,2013-01-10 11:53:00,
2013-01-10 07:03:00,31.0,-99.9,-100.00,ESE,115,5.0,7.0,-999,-99.99,,,-99.99,,2013-01-10 12:03:00,
2013-01-10 07:12:00,31.0,-99.9,-100.00,ESE,115,5.0,7.0,-999,-99.99,,,-99.99,,2013-01-10 12:12:00,
2013-01-10 07:22:00,29.0,-99.9,-100.00,ENE,75,3.0,5.0,-999,-99.99,,,-99.99,,2013-01-10 12:22:00,
2013-01-10 07:33:00,29.0,-99.9,-100.00,ENE,75,3.0,5.0,-999,-99.99,,,-99.99,,2013-01-10 12:33:00,
2013-01-10 07:43:00,29.0,-99.9,-100.00,East,88,2.0,6.0,-999,-99.99,,,-99.99,,2013-01-10 12:43:00,
2013-01-10 07:53:00,29.0,-99.9,-100.00,East,88,2.0,6.0,-999,-99.99,,,-99.99,,2013-01-10 12:53:00,
2013-01-10 08:02:00,29.0,-99.9,-100.00,East,88,2.0,6.0,-999,-99.99,,,-99.99,,2013-01-10 13:02:00,
2013-01-10 08:12:00,29.0,-99.9,-100.00,East,88,2.0,6.0,-999,-99.99,,,-99.99,,2013-01-10 13:12:00,
2013-01-10 08:22:00,29.0,-99.9,-100.00,SSE,156,0.0,2.0,-999,-99.99,,,-99.99,,2013-01-10 13:22:00,
2013-01-10 08:33:00,29.0,-99.9,-100.00,ESE,106,2.0,3.0,-999,-99.99,,,-99.99,,2013-01-10 13:33:00,
2013-01-10 08:42:00,29.0,-99.9,-100.00,ESE,106,2.0,3.0,-999,-99.99,,,-99.99,,2013-01-10 13:42:00,
2013-01-10 08:53:00,29.0,-99.9,-100.00,ESE,106,2.0,3.0,-999,-99.99,,,-99.99,,2013-01-10 13:53:00,
2013-01-10 09:03:00,29.0,-99.9,-100.00,ESE,106,2.0,3.0,-999,-99.99,,,-99.99,,2013-01-10 14:03:00,
2013-01-10 09:12:00,29.0,-99.9,-100.00,ESE,106,2.0,3.0,-999,-99.99,,,-99.99,,2013-01-10 14:12:00,
2013-01-10 09:23:00,30.0,-99.9,-100.00,East,87,2.0,4.0,-999,-99.99,,,-99.99,,2013-01-10 14:23:00,
2013-01-10 09:33:00,30.0,-99.9,-100.00,East,87,2.0,4.0,-999,-99.99,,,-99.99,,2013-01-10 14:33:00,
2013-01-10 09:44:00,30.0,-99.9,-100.00,ENE,73,1.0,5.0,-999,-99.99,,,-99.99,,2013-01-10 14:44:00,
2013-01-10 09:53:00,30.0,-99.9,-100.00,ENE,73,1.0,5.0,-999,-99.99,,,-99.99,,2013-01-10 14:53:00,
2013-01-10 10:03:00,30.0,-99.9,-100.00,ENE,73,1.0,5.0,-999,-99.99,,,-99.99,,2013-01-10 15:03:00,
2013-01-10 10:12:00,30.0,-99.9,-100.00,ENE,73,1.0,5.0,-999,-99.99,,,-99.99,,2013-01-10 15:12:00,
2013-01-10 10:23:00,33.0,-99.9,-100.00,NE,35,0.0,5.0,-999,-99.99,,,-99.99,,2013-01-10 15:23:00,
2013-01-10 10:33:00,34.0,-99.9,-100.00,East,88,2.0,6.0,-999,-99.99,,,-99.99,,2013-01-10 15:33:00,
2013-01-10 10:43:00,34.0,-99.9,-100.00,East,88,2.0,6.0,-999,-99.99,,,-99.99,,2013-01-10 15:43:00,
2013-01-10 10:53:00,34.0,-99.9,-100.00,East,88,2.0,6.0,-999,-99.99,,,-99.99,,2013-01-10 15:53:00,
2013-01-10 11:03:00,34.0,-99.9,-100.00,East,88,2.0,6.0,-999,-99.99,,,-99.99,,2013-01-10 16:03:00,
2013-01-10 11:13:00,34.0,-99.9,-100.00,East,88,2.0,6.0,-999,-99.99,,,-99.99,,2013-01-10 16:13:00,
2013-01-10 11:23:00,38.0,-99.9,-100.00,ESE,112,3.0,7.0,-999,-99.99,,,-99.99,,2013-01-10 16:23:00,
2013-01-10 11:33:00,38.0,-99.9,-100.00,ESE,112,3.0,7.0,-999,-99.99,,,-99.99,,2013-01-10 16:33:00,
2013-01-10 11:43:00,38.0,-99.9,-100.00,SE,126,1.0,9.0,-999,-99.99,,,-99.99,,2013-01-10 16:43:00,
2013-01-10 11:53:00,38.0,-99.9,-100.00,SE,126,1.0,9.0,-999,-99.99,,,-99.99,,2013-01-10 16:53:00,
2013-01-10 12:03:00,38.0,-99.9,-100.00,SE,126,1.0,9.0,-999,-99.99,,,-99.99,,2013-01-10 17:03:00,
2013-01-10 12:13:00,38.0,-99.9,-100.00,SE,126,1.0,9.0,-999,-99.99,,,-99.99,,2013-01-10 17:13:00,
2013-01-10 12:23:00,42.0,-99.9,-100.00,ESE,106,4.0,7.0,-999,-99.99,,,-99.99,,2013-01-10 17:23:00,
2013-01-10 12:33:00,42.0,-99.9,-100.00,ESE,106,4.0,7.0,-999,-99.99,,,-99.99,,2013-01-10 17:33:00,
2013-01-10 12:43:00,42.0,-99.9,-100.00,ESE,106,4.0,7.0,-999,-99.99,,,-99.99,,2013-01-10 17:43:00,
2013-01-10 12:54:00,42.0,-99.9,-100.00,ESE,113,5.0,11.0,-999,-99.99,,,-99.99,,2013-01-10 17:54:00,
2013-01-10 13:04:00,42.0,-99.9,-100.00,ESE,113,5.0,11.0,-999,-99.99,,,-99.99,,2013-01-10 18:04:00,
2013-01-10 13:13:00,42.0,-99.9,-100.00,ESE,113,5.0,11.0,-999,-99.99,,,-99.99,,2013-01-10 18:13:00,
2013-01-10 13:24:00,43.0,-99.9,-100.00,ESE,123,3.0,9.0,-999,-99.99,,,-99.99,,2013-01-10 18:24:00,
2013-01-10 13:33:00,44.0,-99.9,-100.00,ESE,107,2.0,10.0,-999,-99.99,,,-99.99,,2013-01-10 18:33:00,
2013-01-10 13:44:00,44.0,-99.9,-100.00,ESE,107,2.0,10.0,-999,-99.99,,,-99.99,,2013-01-10 18:44:00,
2013-01-10 13:53:00,44.0,-99.9,-100.00,ESE,107,2.0,10.0,-999,-99.99,,,-99.99,,2013-01-10 18:53:00,
2013-01-10 14:03:00,44.0,-99.9,-100.00,ESE,107,2.0,10.0,-999,-99.99,,,-99.99,,2013-01-10 19:03:00,
2013-01-10 14:13:00,44.0,-99.9,-100.00,ESE,107,2.0,10.0,-999,-99.99,,,-99.99,,2013-01-10 19:13:00,
2013-01-10 14:23:00,42.0,-99.9,-100.00,East,89,3.0,10.0,-999,-99.99,,,-99.99,,2013-01-10 19:23:00,
2013-01-10 14:33:00,42.0,-99.9,-100.00,East,89,3.0,10.0,-999,-99.99,,,-99.99,,2013-01-10 19:33:00,
2013-01-10 14:44:00,42.0,-99.9,-100.00,East,89,5.0,13.0,-999,-99.99,,,-99.99,,2013-01-10 19:44:00,
2013-01-10 14:54:00,42.0,-99.9,-100.00,East,89,5.0,13.0,-999,-99.99,,,-99.99,,2013-01-10 19:54:00,
2013-01-10 15:03:00,42.0,-99.9,-100.00,East,89,5.0,13.0,-999,-99.99,,,-99.99,,2013-01-10 20:03:00,
2013-01-10 15:13:00,42.0,-99.9,-100.00,East,89,5.0,13.0,-999,-99.99,,,-99.99,,2013-01-10 20:13:00,
2013-01-10 15:24:00,43.0,-99.9,-100.00,ESE,115,4.0,10.0,-999,-99.99,,,-99.99,,2013-01-10 20:24:00,
2013-01-10 15:33:00,43.0,-99.9,-100.00,ESE,115,4.0,10.0,-999,-99.99,,,-99.99,,2013-01-10 20:33:00,
2013-01-10 15:43:00,43.0,-99.9,-100.00,ESE,115,4.0,10.0,-999,-99.99,,,-99.99,,2013-01-10 20:43:00,
2013-01-10 15:54:00,43.0,-99.9,-100.00,ENE,59,2.0,10.0,-999,-99.99,,,-99.99,,2013-01-10 20:54:00,
2013-01-10 16:04:00,43.0,-99.9,-100.00,ENE,59,2.0,10.0,-999,-99.99,,,-99.99,,2013-01-10 21:04:00,
2013-01-10 16:13:00,43.0,-99.9,-100.00,ENE,59,2.0,10.0,-999,-99.99,,,-99.99,,2013-01-10 21:13:00,
2013-01-10 16:23:00,42.0,-99.9,-100.00,ESE,102,4.0,9.0,-999,-99.99,,,-99.99,,2013-01-10 21:23:00,
2013-01-10 16:33:00,42.0,-99.9,-100.00,ESE,102,4.0,9.0,-999,-99.99,,,-99.99,,2013-01-10 21:33:00,
2013-01-10 16:44:00,42.0,-99.9,-100.00,East,80,3.0,12.0,-999,-99.99,,,-99.99,,2013-01-10 21:44:00,
2013-01-10 16:54:00,42.0,-99.9,-100.00,East,80,3.0,12.0,-999,-99.99,,,-99.99,,2013-01-10 21:54:00,
2013-01-10 17:04:00,42.0,-99.9,-100.00,East,80,3.0,12.0,-999,-99.99,,,-99.99,,2013-01-10 22:04:00,
2013-01-10 17:13:00,42.0,-99.9,-100.00,East,80,3.0,12.0,-999,-99.99,,,-99.99,,2013-01-10 22:13:00,
2013-01-10 17:27:00,41.0,-99.9,-100.00,ESE,108,2.0,8.0,-999,-99.99,,,-99.99,,2013-01-10 22:27:00,
2013-01-10 17:34:00,41.0,-99.9,-100.00,ESE,119,2.0,13.0,-999,-99.99,,,-99.99,,2013-01-10 22:34:00,
2013-01-10 17:44:00,41.0,-99.9,-100.00,ESE,119,2.0,13.0,-999,-99.99,,,-99.99,,2013-01-10 22:44:00,
2013-01-10 18:03:00,41.0,-99.9,-100.00,ESE,119,2.0,13.0,-999,-99.99,,,-99.99,,2013-01-10 23:03:00,
2013-01-10 18:13:00,41.0,-99.9,-100.00,ESE,119,2.0,13.0,-999,-99.99,,,-99.99,,2013-01-10 23:13:00,
2013-01-10 18:23:00,41.0,-99.9,-100.00,ESE,122,3.0,9.0,-999,-99.99,,,-99.99,,2013-01-10 23:23:00,
2013-01-10 18:33:00,41.0,-99.9,-100.00,ESE,122,3.0,9.0,-999,-99.99,,,-99.99,,2013-01-10 23:33:00,
2013-01-10 18:43:00,41.0,-99.9,-100.00,ESE,109,5.0,17.0,-999,-99.99,,,-99.99,,2013-01-10 23:43:00,
2013-01-10 18:54:00,41.0,-99.9,-100.00,ESE,109,5.0,17.0,-999,-99.99,,,-99.99,,2013-01-10 23:54:00,
2013-01-10 19:03:00,41.0,-99.9,-100.00,ESE,109,5.0,17.0,-999,-99.99,,,-99.99,,2013-01-11 00:03:00,
2013-01-10 19:13:00,41.0,-99.9,-100.00,ESE,109,5.0,17.0,-999,-99.99,,,-99.99,,2013-01-11 00:13:00,
2013-01-10 19:23:00,39.0,-99.9,-100.00,ESE,113,3.0,8.0,-999,-99.99,,,-99.99,,2013-01-11 00:23:00,
2013-01-10 19:33:00,39.0,-99.9,-100.00,ESE,113,3.0,8.0,-999,-99.99,,,-99.99,,2013-01-11 00:33:00,
2013-01-10 19:43:00,39.0,-99.9,-100.00,NE,55,2.0,14.0,-999,-99.99,,,-99.99,,2013-01-11 00:43:00,
2013-01-10 19:53:00,39.0,-99.9,-100.00,NE,55,2.0,14.0,-999,-99.99,,,-99.99,,2013-01-11 00:53:00,
2013-01-10 20:03:00,39.0,-99.9,-100.00,NE,55,2.0,14.0,-999,-99.99,,,-99.99,,2013-01-11 01:03:00,
2013-01-10 20:13:00,39.0,-99.9,-100.00,NE,55,2.0,14.0,-999,-99.99,,,-99.99,,2013-01-11 01:13:00,
2013-01-10 20:24:00,40.0,-99.9,-100.00,ESE,109,4.0,12.0,-999,-99.99,,,-99.99,,2013-01-11 01:24:00,
2013-01-10 20:34:00,40.0,-99.9,-100.00,ESE,109,4.0,12.0,-999,-99.99,,,-99.99,,2013-01-11 01:34:00,
2013-01-10 20:44:00,40.0,-99.9,-100.00,West,264,2.0,15.0,-999,-99.99,,,-99.99,,2013-01-11 01:44:00,
2013-01-10 20:54:00,40.0,-99.9,-100.00,West,264,2.0,15.0,-999,-99.99,,,-99.99,,2013-01-11 01:54:00,
2013-01-10 21:03:00,40.0,-99.9,-100.00,West,264,2.0,15.0,-999,-99.99,,,-99.99,,2013-01-11 02:03:00,
2013-01-10 21:13:00,40.0,-99.9,-100.00,West,264,2.0,15.0,-999,-99.99,,,-99.99,,2013-01-11 02:13:00,
2013-01-10 21:24:00,39.0,-99.9,-100.00,East,89,6.0,14.0,-999,-99.99,,,-99.99,,2013-01-11 02:24:00,
2013-01-10 21:34:00,39.0,-99.9,-100.00,ESE,113,5.0,16.0,-999,-99.99,,,-99.99,,2013-01-11 02:34:00,
2013-01-10 21:44:00,39.0,-99.9,-100.00,ESE,113,5.0,16.0,-999,-99.99,,,-99.99,,2013-01-11 02:44:00,
2013-01-10 21:54:00,39.0,-99.9,-100.00,ESE,113,5.0,16.0,-999,-99.99,,,-99.99,,2013-01-11 02:54:00,
2013-01-10 22:03:00,39.0,-99.9,-100.00,ESE,113,5.0,16.0,-999,-99.99,,,-99.99,,2013-01-11 03:03:00,
2013-01-10 22:13:00,39.0,-99.9,-100.00,ESE,113,5.0,16.0,-999,-99.99,,,-99.99,,2013-01-11 03:13:00,
2013-01-10 22:23:00,38.0,-99.9,-100.00,East,101,4.0,21.0,-999,-99.99,,,-99.99,,2013-01-11 03:23:00,
2013-01-10 22:34:00,38.0,-99.9,-100.00,East,101,4.0,21.0,-999,-99.99,,,-99.99,,2013-01-11 03:34:00,
2013-01-10 22:43:00,38.0,-99.9,-100.00,East,101,4.0,21.0,-999,-99.99,,,-99.99,,2013-01-11 03:43:00,
2013-01-10 22:53:00,38.0,-99.9,-100.00,ESE,122,3.0,21.0,-999,-99.99,,,-99.99,,2013-01-11 03:53:00,
2013-01-10 23:03:00,38.0,-99.9,-100.00,ESE,122,3.0,21.0,-999,-99.99,,,-99.99,,2013-01-11 04:03:00,
2013-01-10 23:12:00,38.0,-99.9,-100.00,ESE,122,3.0,21.0,-999,-99.99,,,-99.99,,2013-01-11 04:12:00,
2013-01-10 23:23:00,38.0,-99.9,-100.00,ESE,107,6.0,14.0,-999,-99.99,,,-99.99,,2013-01-11 04:23:00,
2013-01-10 23:33:00,38.0,-99.9,-100.00,ESE,107,6.0,14.0,-999,-99.99,,,-99.99,,2013-01-11 04:33:00,
2013-01-10 23:43:00,38.0,-99.9,-100.00,East,101,6.0,14.0,-999,-99.99,,,-99.99,,2013-01-11 04:43:00,
2013-01-10 23:53:00,38.0,-99.9,-100.00,East,101,6.0,14.0,-999,-99.99,,,-99.99,,2013-01-11 04:53:00,